createdAt,value
2022-11-16T00:00:37.912Z,95444.91
2022-11-16T00:03:22.776Z,95438.94
2022-11-16T00:06:07.586Z,95426.84
2022-11-16T00:08:52.469Z,95435.53
2022-11-16T00:11:37.210Z,95434.19
2022-11-16T00:14:22.121Z,95450.09
2022-11-16T00:17:07.083Z,95434.19
2022-11-16T00:19:51.851Z,95451.72
2022-11-16T00:22:36.868Z,95455.25
2022-11-16T00:25:22.449Z,95448.78
2022-11-16T00:28:07.866Z,95455.75
2022-11-16T00:30:52.883Z,95452.00
2022-11-16T00:33:37.687Z,95456.00
2022-11-16T00:36:22.601Z,95461.81
2022-11-16T00:39:07.416Z,95456.38
2022-11-16T00:41:52.229Z,95461.66
2022-11-16T00:44:37.198Z,95465.47
2022-11-16T00:47:22.087Z,95466.50
2022-11-16T00:50:06.952Z,95472.56
2022-11-16T00:52:51.914Z,95478.50
2022-11-16T00:55:36.751Z,95473.88
2022-11-16T00:58:21.526Z,95477.31
2022-11-16T01:01:06.478Z,95496.41
2022-11-16T01:03:51.749Z,95492.78
2022-11-16T01:06:36.790Z,95492.47
2022-11-16T01:09:21.538Z,95481.09
2022-11-16T01:12:06.368Z,95487.78
2022-11-16T01:14:51.300Z,95484.16
2022-11-16T01:17:36.231Z,95477.56
2022-11-16T01:20:21.078Z,95489.88
2022-11-16T01:23:05.847Z,95491.59
2022-11-16T01:25:50.828Z,95502.28
2022-11-16T01:28:36.140Z,95507.16
2022-11-16T01:31:21.532Z,95505.66
2022-11-16T01:34:06.444Z,95511.88
2022-11-16T01:36:51.380Z,95514.16
2022-11-16T01:39:36.227Z,95495.25
2022-11-16T01:42:21.040Z,95495.84
2022-11-16T01:45:06.030Z,95499.81
2022-11-16T01:47:51.028Z,95499.47
2022-11-16T01:50:35.793Z,95498.19
2022-11-16T01:53:20.550Z,95508.09
2022-11-16T01:56:05.487Z,95496.13
2022-11-16T01:58:50.288Z,95489.97
2022-11-16T02:01:35.338Z,95494.75
2022-11-16T02:04:20.209Z,95500.38
2022-11-16T02:07:05.069Z,95507.34
2022-11-16T02:09:50.505Z,95507.81
2022-11-16T02:12:35.439Z,95512.34
2022-11-16T02:15:20.313Z,95495.84
2022-11-16T02:18:05.246Z,95500.47
2022-11-16T02:20:50.124Z,95502.94
2022-11-16T02:23:34.980Z,95505.13
2022-11-16T02:26:19.890Z,95507.88
2022-11-16T02:29:04.782Z,95504.88
2022-11-16T02:31:49.774Z,95506.50
2022-11-16T02:34:34.574Z,95505.06
2022-11-16T02:37:19.305Z,95499.78
2022-11-16T02:40:04.234Z,95500.81
2022-11-16T02:42:49.154Z,95501.47
2022-11-16T02:45:34.100Z,95506.88
2022-11-16T02:48:18.964Z,95512.09
2022-11-16T02:51:03.925Z,95511.31
2022-11-16T02:53:48.696Z,95503.94
2022-11-16T02:56:33.595Z,95495.41
2022-11-16T02:59:18.312Z,95479.28
2022-11-16T03:02:03.278Z,95488.56
2022-11-16T03:04:48.237Z,95479.56
2022-11-16T03:07:33.199Z,95470.53
2022-11-16T03:10:18.140Z,95468.00
2022-11-16T03:13:02.865Z,95478.44
2022-11-16T03:15:47.693Z,95472.22
2022-11-16T03:18:32.897Z,95475.16
2022-11-16T03:21:17.947Z,95468.59
2022-11-16T03:24:02.781Z,95463.72
2022-11-16T03:26:47.598Z,95457.91
2022-11-16T03:29:32.637Z,95456.31
2022-11-16T03:32:17.360Z,95446.94
2022-11-16T03:35:02.432Z,95454.38
2022-11-16T03:37:47.233Z,95440.75
2022-11-16T03:40:32.218Z,95428.53
2022-11-16T03:43:16.995Z,95435.41
2022-11-16T03:46:01.855Z,95439.41
2022-11-16T03:48:46.705Z,95430.66
2022-11-16T03:51:31.782Z,95429.09
2022-11-16T03:54:16.783Z,95425.03
2022-11-16T03:57:01.592Z,95426.31
2022-11-16T03:59:46.366Z,95429.16
2022-11-16T04:02:31.321Z,95430.22
2022-11-16T04:05:16.191Z,95423.53
2022-11-16T04:08:01.060Z,95422.53
2022-11-16T04:10:46.109Z,95419.22
2022-11-16T04:13:31.026Z,95429.00
2022-11-16T04:16:15.926Z,95426.69
2022-11-16T04:19:00.829Z,95422.91
2022-11-16T04:21:45.662Z,95422.84
2022-11-16T04:24:30.576Z,95426.44
2022-11-16T04:27:15.535Z,95428.34
2022-11-16T04:30:00.555Z,95429.22
2022-11-16T04:32:45.366Z,95431.03
2022-11-16T04:35:30.244Z,95436.53
2022-11-16T04:38:15.266Z,95435.22
2022-11-16T04:41:00.006Z,95440.59
2022-11-16T04:43:44.968Z,95445.91
2022-11-16T04:46:29.815Z,95438.75
2022-11-16T04:49:14.599Z,95445.41
2022-11-16T04:51:59.383Z,95443.22
2022-11-16T04:54:44.364Z,95441.56
2022-11-16T04:57:29.170Z,95456.75
2022-11-16T05:00:14.121Z,95446.69
2022-11-16T05:03:01.516Z,95448.78
2022-11-16T05:05:46.794Z,95443.88
2022-11-16T05:08:32.125Z,95447.28
2022-11-16T05:11:17.289Z,95439.22
2022-11-16T05:14:02.267Z,95449.63
2022-11-16T05:16:47.057Z,95450.69
2022-11-16T05:19:32.048Z,95441.75
2022-11-16T05:22:17.003Z,95440.84
2022-11-16T05:25:01.898Z,95440.47
2022-11-16T05:27:46.792Z,95443.94
2022-11-16T05:30:31.811Z,95448.97
2022-11-16T05:33:16.686Z,95447.66
2022-11-16T05:36:01.491Z,95442.25
2022-11-16T05:38:46.368Z,95447.91
2022-11-16T05:41:31.351Z,95435.69
2022-11-16T05:44:16.587Z,95435.84
2022-11-16T05:47:01.583Z,95420.56
2022-11-16T05:49:46.402Z,95433.19
2022-11-16T05:52:31.409Z,95437.84
2022-11-16T05:55:16.339Z,95432.00
2022-11-16T05:58:01.197Z,95430.22
2022-11-16T06:00:45.941Z,95437.66
2022-11-16T06:03:30.814Z,95440.53
2022-11-16T06:06:15.581Z,95447.53
2022-11-16T06:09:00.453Z,95445.41
2022-11-16T06:11:45.309Z,95443.44
2022-11-16T06:14:30.177Z,95436.56
2022-11-16T06:17:15.104Z,95445.25
2022-11-16T06:19:59.852Z,95434.78
2022-11-16T06:22:44.845Z,95438.34
2022-11-16T06:25:29.726Z,95437.97
2022-11-16T06:28:14.724Z,95436.53
2022-11-16T06:30:59.704Z,95448.28
2022-11-16T06:33:44.462Z,95447.41
2022-11-16T06:36:29.376Z,95450.59
2022-11-16T06:39:14.345Z,95445.72
2022-11-16T06:41:59.307Z,95443.88
2022-11-16T06:44:44.075Z,95444.66
2022-11-16T06:47:28.999Z,95443.06
2022-11-16T06:50:13.969Z,95444.94
2022-11-16T06:52:58.993Z,95445.69
2022-11-16T06:55:43.736Z,95445.31
2022-11-16T06:58:28.596Z,95451.19
2022-11-16T07:01:13.507Z,95454.88
2022-11-16T07:03:58.973Z,95459.22
2022-11-16T07:06:43.809Z,95454.06
2022-11-16T07:09:28.702Z,95450.00
2022-11-16T07:12:13.653Z,95451.56
2022-11-16T07:14:58.378Z,95453.81
2022-11-16T07:17:43.446Z,95460.81
2022-11-16T07:20:28.280Z,95457.50
2022-11-16T07:23:14.290Z,95456.88
2022-11-16T07:25:59.376Z,95460.22
2022-11-16T07:28:48.241Z,95467.03
2022-11-16T07:31:33.870Z,95471.25
2022-11-16T07:34:18.941Z,95466.34
2022-11-16T07:37:03.623Z,95469.53
2022-11-16T07:39:48.481Z,95468.84
2022-11-16T07:42:33.265Z,95474.16
2022-11-16T07:45:18.271Z,95481.66
2022-11-16T07:48:03.107Z,95480.50
2022-11-16T07:50:47.898Z,95488.56
2022-11-16T07:53:32.713Z,95472.75
2022-11-16T07:56:17.712Z,95477.31
2022-11-16T07:59:02.561Z,95479.66
2022-11-16T08:01:47.525Z,95480.72
2022-11-16T08:04:32.473Z,95479.59
2022-11-16T08:07:17.309Z,95480.53
2022-11-16T08:10:02.178Z,95486.13
2022-11-16T08:12:47.042Z,95490.22
2022-11-16T08:15:31.982Z,95482.38
2022-11-16T08:18:16.741Z,95478.75
2022-11-16T08:21:01.627Z,95482.19
2022-11-16T08:23:46.534Z,95493.91
2022-11-16T08:26:31.438Z,95492.53
2022-11-16T08:29:16.361Z,95487.72
2022-11-16T08:32:01.186Z,95493.44
2022-11-16T08:34:46.194Z,95492.84
2022-11-16T08:37:31.091Z,95491.13
2022-11-16T08:40:16.007Z,95489.81
2022-11-16T08:43:00.813Z,95496.59
2022-11-16T08:45:45.788Z,95489.78
2022-11-16T08:48:31.035Z,95489.97
2022-11-16T08:51:18.239Z,95497.25
2022-11-16T08:54:03.685Z,95493.75
2022-11-16T08:56:48.594Z,95489.47
2022-11-16T08:59:33.460Z,95487.81
2022-11-16T09:02:18.399Z,95479.63
2022-11-16T09:05:03.250Z,95479.56
2022-11-16T09:07:48.141Z,95478.03
2022-11-16T09:10:32.982Z,95479.25
2022-11-16T09:13:17.870Z,95481.06
2022-11-16T09:16:03.012Z,95478.59
2022-11-16T09:18:48.299Z,95477.41
2022-11-16T09:21:32.893Z,95473.47
2022-11-16T09:24:17.866Z,95477.63
2022-11-16T09:27:02.598Z,95479.16
2022-11-16T09:29:47.388Z,95479.34
2022-11-16T09:32:32.441Z,95475.78
2022-11-16T09:35:17.181Z,95465.63
2022-11-16T09:38:02.078Z,95465.72
2022-11-16T09:40:46.854Z,95459.00
2022-11-16T09:43:32.146Z,95471.38
2022-11-16T09:46:17.042Z,95473.25
2022-11-16T09:49:01.959Z,95481.50
2022-11-16T09:51:46.762Z,95481.84
2022-11-16T09:54:31.643Z,95487.22
2022-11-16T09:57:16.690Z,95485.34
2022-11-16T10:00:01.463Z,95486.47
2022-11-16T10:02:46.445Z,95490.72
2022-11-16T10:05:31.270Z,95495.88
2022-11-16T10:08:16.235Z,95492.91
2022-11-16T10:11:01.012Z,95490.50
2022-11-16T10:13:45.945Z,95487.78
2022-11-16T10:16:30.784Z,95489.94
2022-11-16T10:19:15.620Z,95482.41
2022-11-16T10:22:00.630Z,95475.38
2022-11-16T10:24:45.507Z,95465.53
2022-11-16T10:27:30.384Z,95465.84
2022-11-16T10:30:15.224Z,95465.19
2022-11-16T10:33:00.126Z,95469.22
2022-11-16T10:35:44.973Z,95470.88
2022-11-16T10:38:30.037Z,95476.81
2022-11-16T10:41:15.003Z,95467.72
2022-11-16T10:43:59.919Z,95458.63
2022-11-16T10:46:45.059Z,95461.59
2022-11-16T10:49:29.941Z,95455.75
2022-11-16T10:52:14.807Z,95458.00
2022-11-16T10:54:59.746Z,95461.16
2022-11-16T10:57:44.610Z,95455.81
2022-11-16T11:00:29.397Z,95451.38
2022-11-16T11:03:14.329Z,95446.22
2022-11-16T11:05:59.306Z,95436.09
2022-11-16T11:08:44.247Z,95428.66
2022-11-16T11:11:29.170Z,95436.69
2022-11-16T11:14:13.996Z,95429.06
2022-11-16T11:16:58.855Z,95445.84
2022-11-16T11:19:43.764Z,95432.56
2022-11-16T11:22:28.679Z,95427.00
2022-11-16T11:25:13.620Z,95422.78
2022-11-16T11:27:58.501Z,95419.88
2022-11-16T11:30:43.302Z,95416.31
2022-11-16T11:33:28.236Z,95391.34
2022-11-16T11:36:13.143Z,95384.69
2022-11-16T11:38:58.055Z,95381.31
2022-11-16T11:41:42.952Z,95386.22
2022-11-16T11:44:27.665Z,95386.81
2022-11-16T11:47:55.596Z,95388.81
2022-11-16T11:50:17.621Z,95392.41
2022-11-16T11:53:02.527Z,95394.84
2022-11-16T11:55:47.386Z,95375.53
2022-11-16T11:58:32.091Z,95367.97
2022-11-16T12:01:22.181Z,95364.69
2022-11-16T12:04:10.107Z,95349.75
2022-11-16T12:06:55.039Z,95349.31
2022-11-16T12:09:39.944Z,95345.88
2022-11-16T12:12:24.906Z,95344.13
2022-11-16T12:15:09.779Z,95336.28
2022-11-16T12:17:54.772Z,95334.69
2022-11-16T12:20:39.496Z,95335.59
2022-11-16T12:23:24.324Z,95329.22
2022-11-16T12:26:09.145Z,95337.47
2022-11-16T12:28:53.940Z,95329.78
2022-11-16T12:31:38.943Z,95326.91
2022-11-16T12:34:23.905Z,95312.38
2022-11-16T12:37:08.813Z,95316.75
2022-11-16T12:39:53.670Z,95314.66
2022-11-16T12:42:38.701Z,95321.03
2022-11-16T12:45:27.640Z,95322.00
2022-11-16T12:48:15.859Z,95308.59
2022-11-16T12:51:00.973Z,95311.19
2022-11-16T12:53:45.790Z,95304.22
2022-11-16T12:56:30.595Z,95299.91
2022-11-16T12:59:15.308Z,95291.03
2022-11-16T13:02:00.773Z,95293.69
2022-11-16T13:04:46.187Z,95286.34
2022-11-16T13:07:31.074Z,95285.53
2022-11-16T13:10:16.016Z,95278.22
2022-11-16T13:13:29.662Z,95278.84
2022-11-16T13:16:05.865Z,95276.19
2022-11-16T13:18:50.764Z,95273.69
2022-11-16T13:21:35.573Z,95268.91
2022-11-16T13:24:20.487Z,95266.34
2022-11-16T13:27:05.301Z,95260.00
2022-11-16T13:29:50.306Z,95255.31
2022-11-16T13:32:35.085Z,95259.69
2022-11-16T13:35:19.964Z,95253.81
2022-11-16T13:38:04.914Z,95245.63
2022-11-16T13:40:49.854Z,95252.94
2022-11-16T13:43:34.818Z,95237.22
2022-11-16T13:46:53.777Z,95244.81
2022-11-16T13:49:24.687Z,95242.59
2022-11-16T13:52:35.683Z,95246.19
2022-11-16T13:55:14.886Z,95236.06
2022-11-16T13:57:59.784Z,95239.13
2022-11-16T14:00:44.877Z,95234.31
2022-11-16T14:03:29.657Z,95236.69
2022-11-16T14:06:14.645Z,95234.59
2022-11-16T14:08:59.633Z,95232.56
2022-11-16T14:11:44.539Z,95232.59
2022-11-16T14:14:29.268Z,95235.75
2022-11-16T14:17:14.148Z,95223.31
2022-11-16T14:19:58.918Z,95203.22
2022-11-16T14:22:43.871Z,95198.31
2022-11-16T14:25:29.152Z,95196.91
2022-11-16T14:28:13.867Z,95211.94
2022-11-16T14:30:58.827Z,95205.72
2022-11-16T14:33:43.606Z,95210.69
2022-11-16T14:36:28.540Z,95212.13
2022-11-16T14:39:13.395Z,95217.81
2022-11-16T14:41:58.474Z,95217.03
2022-11-16T14:44:43.385Z,95202.00
2022-11-16T14:47:28.304Z,95192.00
2022-11-16T14:50:13.328Z,95193.16
2022-11-16T14:52:58.244Z,95183.53
2022-11-16T14:55:43.245Z,95180.50
2022-11-16T14:58:27.970Z,95185.63
2022-11-16T15:01:12.836Z,95187.75
2022-11-16T15:03:57.777Z,95187.03
2022-11-16T15:06:43.176Z,95182.19
2022-11-16T15:09:28.165Z,95196.69
2022-11-16T15:12:13.077Z,95201.38
2022-11-16T15:14:58.084Z,95201.66
2022-11-16T15:17:43.009Z,95211.34
2022-11-16T15:20:27.837Z,95209.16
2022-11-16T15:23:12.659Z,95205.16
2022-11-16T15:25:57.642Z,95211.91
2022-11-16T15:28:47.161Z,95200.09
2022-11-16T15:31:34.662Z,95209.22
2022-11-16T15:34:19.720Z,95197.66
2022-11-16T15:37:04.680Z,95190.97
2022-11-16T15:39:49.640Z,95185.03
2022-11-16T15:42:34.603Z,95180.78
2022-11-16T15:45:19.469Z,95170.31
2022-11-16T15:48:04.364Z,95181.03
2022-11-16T15:50:49.209Z,95178.88
2022-11-16T15:53:34.495Z,95174.22
2022-11-16T15:56:19.518Z,95166.41
2022-11-16T15:59:04.462Z,95158.09
2022-11-16T16:01:49.470Z,95153.81
2022-11-16T16:04:34.328Z,95156.63
2022-11-16T16:07:19.434Z,95152.59
2022-11-16T16:10:04.773Z,95156.28
2022-11-16T16:12:50.432Z,95165.53
2022-11-16T16:15:35.229Z,95157.31
2022-11-16T16:18:20.111Z,95151.47
2022-11-16T16:21:04.973Z,95154.63
2022-11-16T16:23:50.089Z,95155.34
2022-11-16T16:26:35.034Z,95148.22
2022-11-16T16:29:20.022Z,95155.13
2022-11-16T16:32:05.069Z,95163.19
2022-11-16T16:34:50.006Z,95158.97
2022-11-16T16:37:34.981Z,95166.97
2022-11-16T16:40:19.731Z,95158.53
2022-11-16T16:43:04.867Z,95156.50
2022-11-16T16:45:49.633Z,95160.00
2022-11-16T16:48:34.584Z,95157.63
2022-11-16T16:51:19.619Z,95151.69
2022-11-16T16:54:04.482Z,95147.22
2022-11-16T16:56:49.428Z,95152.06
2022-11-16T16:59:34.367Z,95147.53
2022-11-16T17:02:19.696Z,95156.97
2022-11-16T17:05:04.652Z,95150.94
2022-11-16T17:07:49.629Z,95138.75
2022-11-16T17:10:34.546Z,95142.84
2022-11-16T17:13:19.963Z,95132.91
2022-11-16T17:16:05.240Z,95140.28
2022-11-16T17:18:50.061Z,95132.00
2022-11-16T17:21:34.923Z,95131.31
2022-11-16T17:24:19.771Z,95132.53
2022-11-16T17:27:04.785Z,95121.91
2022-11-16T17:29:49.971Z,95117.03
2022-11-16T17:32:35.132Z,95112.72
2022-11-16T17:35:20.142Z,95114.34
2022-11-16T17:38:05.016Z,95112.66
2022-11-16T17:40:49.984Z,95112.78
2022-11-16T17:43:35.186Z,95121.59
2022-11-16T17:46:20.257Z,95119.75
2022-11-16T17:49:05.197Z,95121.25
2022-11-16T17:51:50.042Z,95109.81
2022-11-16T17:54:35.007Z,95099.66
2022-11-16T17:57:19.825Z,95093.84
2022-11-16T18:00:04.937Z,95090.19
2022-11-16T18:02:49.923Z,95056.09
2022-11-16T18:05:34.975Z,95053.84
2022-11-16T18:08:19.825Z,95056.09
2022-11-16T18:11:04.642Z,95049.22
2022-11-16T18:13:49.584Z,95049.72
2022-11-16T18:16:34.648Z,95046.28
2022-11-16T18:19:19.550Z,95051.97
2022-11-16T18:22:04.497Z,95051.69
2022-11-16T18:24:49.542Z,95057.69
2022-11-16T18:27:34.534Z,95062.97
2022-11-16T18:30:19.501Z,95058.25
2022-11-16T18:33:04.309Z,95043.13
2022-11-16T18:35:49.329Z,95048.78
2022-11-16T18:38:34.029Z,95040.44
2022-11-16T18:41:18.909Z,95041.25
2022-11-16T18:44:03.770Z,95034.50
2022-11-16T18:46:48.654Z,95035.59
2022-11-16T18:49:33.726Z,95029.25
2022-11-16T18:52:18.562Z,95013.03
2022-11-16T18:55:03.408Z,95013.03
2022-11-16T18:57:48.346Z,95015.28
2022-11-16T19:00:33.250Z,95002.03
2022-11-16T19:03:18.081Z,95007.78
2022-11-16T19:06:03.115Z,94989.69
2022-11-16T19:08:55.026Z,94988.75
2022-11-16T19:11:40.645Z,94994.16
2022-11-16T19:14:25.407Z,94996.16
2022-11-16T19:17:10.298Z,95004.72
2022-11-16T19:19:55.200Z,94997.13
2022-11-16T19:22:39.957Z,94980.56
2022-11-16T19:25:24.808Z,94975.63
2022-11-16T19:28:09.648Z,94977.16
2022-11-16T19:30:54.426Z,94986.53
2022-11-16T19:33:39.357Z,94979.66
2022-11-16T19:36:24.316Z,94969.94
2022-11-16T19:39:09.325Z,94960.63
2022-11-16T19:41:54.249Z,94929.31
2022-11-16T19:44:39.116Z,94938.66
2022-11-16T19:47:24.137Z,94949.03
2022-11-16T19:50:08.979Z,94936.50
2022-11-16T19:52:53.850Z,94936.47
2022-11-16T19:55:38.661Z,94941.50
2022-11-16T19:58:23.692Z,94937.53
2022-11-16T20:01:08.846Z,94942.69
2022-11-16T20:03:54.182Z,94932.78
2022-11-16T20:06:39.171Z,94923.44
2022-11-16T20:09:24.025Z,94922.16
2022-11-16T20:12:08.975Z,94937.63
2022-11-16T20:14:53.737Z,94945.25
2022-11-16T20:17:38.874Z,94954.69
2022-11-16T20:20:23.871Z,94951.00
2022-11-16T20:23:08.771Z,94961.94
2022-11-16T20:25:53.701Z,94966.66
2022-11-16T20:28:38.512Z,94959.16
2022-11-16T20:31:23.423Z,94967.16
2022-11-16T20:34:08.290Z,94954.97
2022-11-16T20:36:53.273Z,94981.34
2022-11-16T20:39:38.211Z,94975.94
2022-11-16T20:42:23.467Z,94991.47
2022-11-16T20:45:08.358Z,94988.69
2022-11-16T20:47:53.198Z,94981.59
2022-11-16T20:50:39.333Z,94983.16
2022-11-16T20:53:24.520Z,94974.47
2022-11-16T20:56:09.380Z,94970.63
2022-11-16T20:58:54.318Z,94987.91
2022-11-16T21:01:39.335Z,94990.47
2022-11-16T21:04:24.179Z,94988.75
2022-11-16T21:07:09.119Z,94999.69
2022-11-16T21:09:53.991Z,95009.50
2022-11-16T21:12:42.781Z,95031.56
2022-11-16T21:15:27.975Z,95019.75
2022-11-16T21:18:12.862Z,95026.06
2022-11-16T21:20:57.772Z,95038.38
2022-11-16T21:23:42.710Z,95041.06
2022-11-16T21:26:27.439Z,95020.72
2022-11-16T21:29:12.406Z,95030.81
2022-11-16T21:31:57.310Z,95031.69
2022-11-16T21:34:42.274Z,95044.66
2022-11-16T21:37:27.252Z,95042.38
2022-11-16T21:40:12.212Z,95041.22
2022-11-16T21:42:57.250Z,95035.53
2022-11-16T21:45:42.079Z,95043.19
2022-11-16T21:48:28.275Z,95031.97
2022-11-16T21:51:13.019Z,95038.28
2022-11-16T21:53:57.986Z,95033.72
2022-11-16T21:56:42.860Z,95028.16
2022-11-16T21:59:27.925Z,95031.19
2022-11-16T22:02:12.855Z,95029.97
2022-11-16T22:04:57.703Z,95022.00
2022-11-16T22:07:42.707Z,95029.47
2022-11-16T22:10:27.552Z,95031.25
2022-11-16T22:13:12.548Z,95028.38
2022-11-16T22:15:57.324Z,95023.53
2022-11-16T22:18:42.242Z,95003.41
2022-11-16T22:21:27.181Z,95009.25
2022-11-16T22:24:12.065Z,95030.97
2022-11-16T22:26:57.579Z,95029.75
2022-11-16T22:29:42.445Z,95034.91
2022-11-16T22:32:27.343Z,95043.25
2022-11-16T22:35:12.294Z,95057.47
2022-11-16T22:37:57.178Z,95026.41
2022-11-16T22:40:42.050Z,95009.81
2022-11-16T22:43:26.920Z,95004.16
2022-11-16T22:46:11.706Z,95022.16
2022-11-16T22:48:56.610Z,95017.88
2022-11-16T22:51:41.556Z,95015.91
2022-11-16T22:54:28.735Z,95006.81
2022-11-16T22:57:14.141Z,95019.22
2022-11-16T23:00:01.964Z,95022.31
2022-11-16T23:02:46.781Z,95009.88
2022-11-16T23:05:31.760Z,95044.56
2022-11-16T23:08:16.633Z,95029.50
2022-11-16T23:11:01.521Z,95038.81
2022-11-16T23:13:46.527Z,95054.31
2022-11-16T23:16:31.387Z,95055.41
2022-11-16T23:19:16.396Z,95052.81
2022-11-16T23:22:01.255Z,95058.59
2022-11-16T23:24:46.268Z,95044.66
2022-11-16T23:27:31.088Z,95038.34
2022-11-16T23:30:16.244Z,95040.00
2022-11-16T23:33:01.032Z,95031.88
2022-11-16T23:35:45.968Z,95035.78
2022-11-16T23:38:30.911Z,95032.69
2022-11-16T23:41:15.978Z,95025.97
2022-11-16T23:44:00.836Z,95033.28
2022-11-16T23:46:45.709Z,95029.84
2022-11-16T23:49:30.763Z,95001.53
2022-11-16T23:52:15.709Z,94998.88
2022-11-16T23:55:00.718Z,94961.84
2022-11-16T23:57:45.558Z,94947.66
